Norwegian Crown — C6II4 — position and weather

sailwx.info

Track history (hours):
 
Tides and Currents Weather Stations Pressure Air Temp Water Temp Dewpoint Dewpoint Depression Visibility Wind Speed Wind Dir Waves Ship Positions

Norwegian Crown

Operator: Norwegian Cruise Line

Last reported at 2019-Mar-26 00:30 UTC. Time now 2019-Mar-26 00:44 UTC.
Position N 39°39' W 010°23'.

Type: Ship. MMSI: 308785000.

Date/timePositionNaut miles runAvg speedWind from/ knotsBaromVisibWave heightAir tempDewpointWater temp
2019-Mar-26 00:30N 39°39' W 010°23'917.2
2019-Mar-26 00:00N 39°46' W 010°16'917.3
2019-Mar-25 23:30N 39°53' W 010°10'917.1
2019-Mar-25 23:00N 39°60' W 010°02'817.3
2019-Mar-25 22:30N 40°06' W 009°55'917.5
2019-Mar-25 22:00N 40°12' W 009°47'917.5
2019-Mar-25 21:30N 40°19' W 009°40'917.3
2019-Mar-25 21:00N 40°26' W 009°33'917.4
2019-Mar-25 20:30N 40°33' W 009°26'917.5
2019-Mar-25 20:00N 40°39' W 009°18'917.2
2019-Mar-25 19:30N 40°46' W 009°10'917.3
2019-Mar-25 19:00N 40°52' W 009°03'1416.8
2019-Mar-25 18:08N 41°03' W 008°50'216.6
2019-Mar-25 18:00N 41°05' W 008°49'  
2019-Mar-23 10:21N 48°44' W 005°55'617.7
2019-Mar-23 10:00N 48°50' W 005°50'816.8
2019-Mar-23 09:30N 48°56' W 005°42'816.5
2019-Mar-23 09:00N 49°00' W 005°31'1815.4
2019-Mar-23 07:52N 49°10' W 005°09'513.8
2019-Mar-23 07:30N 49°13' W 005°02'913.5
2019-Mar-23 06:49N 49°17' W 004°50'513.1
2019-Mar-23 06:25N 49°20' W 004°43'1813.1
2019-Mar-23 05:01N 49°30' W 004°19'014.4
2019-Mar-23 05:00N 49°30' W 004°19'713.8
2019-Mar-23 04:30N 49°33' W 004°09'714.8
2019-Mar-23 04:00N 49°37' W 003°60'815.7
2019-Mar-23 03:30N 49°41' W 003°49'816.8
2019-Mar-23 03:00N 49°45' W 003°38'917.6
2019-Mar-23 02:30N 49°49' W 003°26'918.1
2019-Mar-23 02:00N 49°53' W 003°13'918.0
2019-Mar-23 01:30N 49°58' W 003°01'917.5
2019-Mar-23 01:00N 50°01' W 002°48'816.8
2019-Mar-23 00:30N 50°03' W 002°36'815.8
2019-Mar-23 00:00N 50°06' W 002°24'714.7
2019-Mar-22 23:30N 50°08' W 002°13'1113.2
2019-Mar-22 22:42N 50°11' W 001°57'212.3
2019-Mar-22 22:30N 50°12' W 001°54'1711.9
2019-Mar-22 21:05N 50°18' W 001°29'212.2
2019-Mar-22 20:56N 50°19' W 001°27'512.2
2019-Mar-22 20:31N 50°22' W 001°20'612.3
2019-Mar-22 20:01N 50°26' W 001°12'612.6
2019-Mar-22 19:31N 50°29' W 001°05'713.4
2019-Mar-22 19:01N 50°35' W 000°59'713.3
2019-Mar-22 18:31N 50°42' W 000°58'713.6
2019-Mar-22 18:00N 50°45' W 001°07'815.2
2019-Mar-22 17:31N 50°47' W 001°19'5 9.1
2019-Mar-22 17:00N 50°52' W 001°21'3 6.5
2019-Mar-22 16:29N 50°54' W 001°25'0 0.0
2019-Mar-22 15:59N 50°54' W 001°25'0 0.0
2019-Mar-22 15:29N 50°54' W 001°25'0 0.0
2019-Mar-22 14:59N 50°54' W 001°25'0 0.0
2019-Mar-22 14:29N 50°54' W 001°25'0 0.0
2019-Mar-22 13:59N 50°54' W 001°25'0 0.0
2019-Mar-22 13:29N 50°54' W 001°25'0 0.0
2019-Mar-22 12:59N 50°54' W 001°25'0 0.0
2019-Mar-22 12:29N 50°54' W 001°25'0 0.0
2019-Mar-22 11:59N 50°54' W 001°25'0 0.0
2019-Mar-22 11:26N 50°54' W 001°25'0 0.0
2019-Mar-22 10:59N 50°54' W 001°25'0 0.0
2019-Mar-22 10:29N 50°54' W 001°25'0 0.0
2019-Mar-22 09:59N 50°54' W 001°25'0 0.0
2019-Mar-22 09:29N 50°54' W 001°25'0 0.0
2019-Mar-22 08:59N 50°54' W 001°25'0 0.0
2019-Mar-22 08:29N 50°54' W 001°25'0 0.0
2019-Mar-22 07:59N 50°54' W 001°25'0 0.0
2019-Mar-22 07:26N 50°54' W 001°25'0 0.0
2019-Mar-22 06:59N 50°54' W 001°25'0 0.0
2019-Mar-22 06:29N 50°54' W 001°25'0 0.1
2019-Mar-22 06:01N 50°54' W 001°25'2 4.8
2019-Mar-22 05:31N 50°52' W 001°23'510.0
2019-Mar-22 05:01N 50°48' W 001°18'5 9.0
2019-Mar-22 04:31N 50°46' W 001°12'612.4
2019-Mar-22 04:01N 50°44' W 001°02'5 9.6
2019-Mar-22 03:31N 50°39' W 000°59'510.6
2019-Mar-22 03:01N 50°34' W 000°58'611.6
2019-Mar-22 02:31N 50°29' W 000°55'510.5
2019-Mar-22 02:00N 50°27' W 001°03'510.3
2019-Mar-22 01:31N 50°26' W 001°11'510.1
2019-Mar-22 01:00N 50°25' W 001°18'915.4
2019-Mar-22 00:26N 50°19' W 001°07'714.3
2019-Mar-21 23:58N 50°13' W 001°03'912.5
2019-Mar-21 23:15N 50°08' W 001°14'415.5
2019-Mar-21 23:00N 50°07' W 001°20'816.1
2019-Mar-21 22:31N 50°05' W 001°32'917.3
2019-Mar-21 22:01N 50°03' W 001°45'1318.9
2019-Mar-21 21:20N 49°60' W 002°04'919.4
2019-Mar-21 20:54N 49°58' W 002°17'719.1
2019-Mar-21 20:31N 49°56' W 002°28'918.6
2019-Mar-21 20:00N 49°53' W 002°42'1717.0
2019-Mar-21 19:01N 49°43' W 003°02'117.8
2019-Mar-21 18:58N 49°42' W 003°03'817.7
2019-Mar-21 18:30N 49°37' W 003°14'1317.7
2019-Mar-21 17:48N 49°31' W 003°30'1017.6
2019-Mar-21 17:14N 49°25' W 003°43'417.6
2019-Mar-21 17:00N 49°23' W 003°48'817.4
2019-Mar-21 16:30N 49°18' W 003°59'1017.4
2019-Mar-21 15:58N 49°12' W 004°11'817.1
2019-Mar-21 15:31N 49°08' W 004°20'1017.0
2019-Mar-21 14:55N 49°02' W 004°33'716.9
2019-Mar-21 14:31N 48°58' W 004°41'816.6
2019-Mar-21 14:01N 48°53' W 004°51'816.0
2019-Mar-21 13:31N 48°48' W 005°01'815.4
2019-Mar-21 13:01N 48°42' W 005°09'714.4
2019-Mar-21 12:31N 48°37' W 005°16'714.5
2019-Mar-21 12:01N 48°31' W 005°23'714.8
2019-Mar-21 11:31N 48°25' W 005°29'1014.6
2019-Mar-21 10:48N 48°16' W 005°37'1414.4
2019-Mar-21 09:48N 48°04' W 005°47'1414.0
2019-Mar-21 08:48N 47°51' W 005°57'1414.1
2019-Mar-21 07:48N 47°39' W 006°07'  
2019-Mar-18 02:10N 38°18' W 023°35'215.3
2019-Mar-18 02:01N 38°17' W 023°37'815.2
2019-Mar-18 01:31N 38°14' W 023°46'815.4
2019-Mar-18 01:00N 38°10' W 023°55'815.2
2019-Mar-18 00:31N 38°07' W 024°03'815.7
2019-Mar-18 00:00N 38°03' W 024°12'815.5
2019-Mar-17 23:31N 37°59' W 024°21'815.8
2019-Mar-17 23:01N 37°56' W 024°30'815.6
2019-Mar-17 22:31N 37°52' W 024°39'815.4
2019-Mar-17 22:01N 37°49' W 024°47'815.3
2019-Mar-17 21:31N 37°46' W 024°56'815.2
2019-Mar-17 21:01N 37°43' W 025°05'815.5
2019-Mar-17 20:31N 37°41' W 025°15'815.7
2019-Mar-17 20:01N 37°39' W 025°24'715.0
2019-Mar-17 19:31N 37°40' W 025°34'611.9
2019-Mar-17 19:01N 37°44' W 025°39'0 0.6
2019-Mar-17 18:30N 37°44' W 025°40'0 0.0
2019-Mar-17 18:00N 37°44' W 025°40'0 0.0
2019-Mar-17 17:30N 37°44' W 025°40'0 0.0
2019-Mar-17 17:00N 37°44' W 025°40'0 0.0
2019-Mar-17 16:30N 37°44' W 025°40'0 0.0
2019-Mar-17 16:00N 37°44' W 025°40'0 0.0
2019-Mar-17 15:30N 37°44' W 025°40'0 0.0
2019-Mar-17 15:18N 37°44' W 025°40'0 0.0
2019-Mar-17 15:00N 37°44' W 025°40'027.5
2019-Mar-17 15:00N 37°44' W 025°40'0 0.1
2019-Mar-17 14:30N 37°44' W 025°40'011.8
2019-Mar-17 14:30N 37°44' W 025°40'0 0.1
2019-Mar-17 14:00N 37°44' W 025°40'0 4.4
2019-Mar-17 14:00N 37°44' W 025°40'0 0.0
2019-Mar-17 13:31N 37°44' W 025°40'0 1.9
2019-Mar-17 13:30N 37°44' W 025°40'0 0.1
2019-Mar-17 13:00N 37°44' W 025°40'010.5
2019-Mar-17 13:00N 37°44' W 025°40'0 0.1
2019-Mar-17 12:30N 37°44' W 025°40'073.8
2019-Mar-17 12:30N 37°44' W 025°40'0 0.2
2019-Mar-17 12:00N 37°44' W 025°40'019.7
2019-Mar-17 12:00N 37°44' W 025°40'0 0.1
2019-Mar-17 11:31N 37°44' W 025°40'0 6.9
2019-Mar-17 11:30N 37°44' W 025°40'0 0.1
2019-Mar-17 11:00N 37°44' W 025°40'0 9.6
2019-Mar-17 11:00N 37°44' W 025°40'0 0.0
2019-Mar-17 10:30N 37°44' W 025°40'0 0.0
2019-Mar-17 10:00N 37°44' W 025°40'0 0.0
2019-Mar-17 09:30N 37°44' W 025°40'1 1.0
2019-Mar-17 09:00N 37°44' W 025°39'4 7.2
2019-Mar-17 08:30N 37°41' W 025°42'4 8.9
2019-Mar-17 08:00N 37°39' W 025°47'5 9.1
2019-Mar-17 07:30N 37°37' W 025°52'4 8.8
2019-Mar-17 07:00N 37°34' W 025°57'4 8.7
2019-Mar-17 06:30N 37°32' W 026°02'4 8.5
2019-Mar-17 06:00N 37°31' W 026°07'4 8.9
2019-Mar-17 05:30N 37°29' W 026°12'5 9.1
2019-Mar-17 05:00N 37°28' W 026°17'5 9.4
2019-Mar-17 04:30N 37°26' W 026°23'510.1
2019-Mar-17 04:00N 37°24' W 026°29'510.0
2019-Mar-17 03:30N 37°22' W 026°34'5 9.7
2019-Mar-17 03:00N 37°21' W 026°40'5 9.4
2019-Mar-17 02:31N 37°19' W 026°46'4 9.0
2019-Mar-17 02:00N 37°17' W 026°51'4 8.9
2019-Mar-17 01:30N 37°16' W 026°56'5 9.2
2019-Mar-17 01:00N 37°14' W 027°01'5 9.3
2019-Mar-17 00:30N 37°12' W 027°07'5 9.3
2019-Mar-17 00:01N 37°10' W 027°12'5 9.5
2019-Mar-16 23:30N 37°08' W 027°18'5 9.8
2019-Mar-16 23:01N 37°07' W 027°23'510.0
2019-Mar-16 22:30N 37°05' W 027°29'5 9.8
2019-Mar-16 22:00N 37°03' W 027°35'510.5
2019-Mar-16 21:31N 37°01' W 027°41'510.4
2019-Mar-16 21:00N 36°59' W 027°47'710.5
2019-Mar-16 20:23N 36°57' W 027°55'410.7
2019-Mar-16 20:00N 36°55' W 027°59'610.7
2019-Mar-16 19:25N 36°53' W 028°07'  
Track history (hours):
 
Tides and Currents Weather Stations Pressure Air Temp Water Temp Dewpoint Dewpoint Depression Visibility Wind Speed Wind Dir Waves Ship Positions

Norwegian Crown

Operator: Norwegian Cruise Line

Last reported at 2019-Mar-26 00:30 UTC. Time now 2019-Mar-26 00:44 UTC.
Position N 39°39' W 010°23'.

Type: Ship. MMSI: 308785000.

Date/timePositionNaut miles runAvg speedWind from/ knotsBaromVisibWave heightAir tempDewpointWater temp
2019-Mar-26 00:30N 39°39' W 010°23'917.2
2019-Mar-26 00:00N 39°46' W 010°16'917.3
2019-Mar-25 23:30N 39°53' W 010°10'917.1
2019-Mar-25 23:00N 39°60' W 010°02'817.3
2019-Mar-25 22:30N 40°06' W 009°55'917.5
2019-Mar-25 22:00N 40°12' W 009°47'917.5
2019-Mar-25 21:30N 40°19' W 009°40'917.3
2019-Mar-25 21:00N 40°26' W 009°33'917.4
2019-Mar-25 20:30N 40°33' W 009°26'917.5
2019-Mar-25 20:00N 40°39' W 009°18'917.2
2019-Mar-25 19:30N 40°46' W 009°10'917.3
2019-Mar-25 19:00N 40°52' W 009°03'1416.8
2019-Mar-25 18:08N 41°03' W 008°50'216.6
2019-Mar-25 18:00N 41°05' W 008°49'  
2019-Mar-23 10:21N 48°44' W 005°55'617.7
2019-Mar-23 10:00N 48°50' W 005°50'816.8
2019-Mar-23 09:30N 48°56' W 005°42'816.5
2019-Mar-23 09:00N 49°00' W 005°31'1815.4
2019-Mar-23 07:52N 49°10' W 005°09'513.8
2019-Mar-23 07:30N 49°13' W 005°02'913.5
2019-Mar-23 06:49N 49°17' W 004°50'513.1
2019-Mar-23 06:25N 49°20' W 004°43'1813.1
2019-Mar-23 05:01N 49°30' W 004°19'014.4
2019-Mar-23 05:00N 49°30' W 004°19'713.8
2019-Mar-23 04:30N 49°33' W 004°09'714.8
2019-Mar-23 04:00N 49°37' W 003°60'815.7
2019-Mar-23 03:30N 49°41' W 003°49'816.8
2019-Mar-23 03:00N 49°45' W 003°38'917.6
2019-Mar-23 02:30N 49°49' W 003°26'918.1
2019-Mar-23 02:00N 49°53' W 003°13'918.0
2019-Mar-23 01:30N 49°58' W 003°01'917.5
2019-Mar-23 01:00N 50°01' W 002°48'816.8
2019-Mar-23 00:30N 50°03' W 002°36'815.8
2019-Mar-23 00:00N 50°06' W 002°24'714.7
2019-Mar-22 23:30N 50°08' W 002°13'1113.2
2019-Mar-22 22:42N 50°11' W 001°57'212.3
2019-Mar-22 22:30N 50°12' W 001°54'1711.9
2019-Mar-22 21:05N 50°18' W 001°29'212.2
2019-Mar-22 20:56N 50°19' W 001°27'512.2
2019-Mar-22 20:31N 50°22' W 001°20'612.3
2019-Mar-22 20:01N 50°26' W 001°12'612.6
2019-Mar-22 19:31N 50°29' W 001°05'713.4
2019-Mar-22 19:01N 50°35' W 000°59'713.3
2019-Mar-22 18:31N 50°42' W 000°58'713.6
2019-Mar-22 18:00N 50°45' W 001°07'815.2
2019-Mar-22 17:31N 50°47' W 001°19'5 9.1
2019-Mar-22 17:00N 50°52' W 001°21'3 6.5
2019-Mar-22 16:29N 50°54' W 001°25'0 0.0
2019-Mar-22 15:59N 50°54' W 001°25'0 0.0
2019-Mar-22 15:29N 50°54' W 001°25'0 0.0
2019-Mar-22 14:59N 50°54' W 001°25'0 0.0
2019-Mar-22 14:29N 50°54' W 001°25'0 0.0
2019-Mar-22 13:59N 50°54' W 001°25'0 0.0
2019-Mar-22 13:29N 50°54' W 001°25'0 0.0
2019-Mar-22 12:59N 50°54' W 001°25'0 0.0
2019-Mar-22 12:29N 50°54' W 001°25'0 0.0
2019-Mar-22 11:59N 50°54' W 001°25'0 0.0
2019-Mar-22 11:26N 50°54' W 001°25'0 0.0
2019-Mar-22 10:59N 50°54' W 001°25'0 0.0
2019-Mar-22 10:29N 50°54' W 001°25'0 0.0
2019-Mar-22 09:59N 50°54' W 001°25'0 0.0
2019-Mar-22 09:29N 50°54' W 001°25'0 0.0
2019-Mar-22 08:59N 50°54' W 001°25'0 0.0
2019-Mar-22 08:29N 50°54' W 001°25'0 0.0
2019-Mar-22 07:59N 50°54' W 001°25'0 0.0
2019-Mar-22 07:26N 50°54' W 001°25'0 0.0
2019-Mar-22 06:59N 50°54' W 001°25'0 0.0
2019-Mar-22 06:29N 50°54' W 001°25'0 0.1
2019-Mar-22 06:01N 50°54' W 001°25'2 4.8
2019-Mar-22 05:31N 50°52' W 001°23'510.0
2019-Mar-22 05:01N 50°48' W 001°18'5 9.0
2019-Mar-22 04:31N 50°46' W 001°12'612.4
2019-Mar-22 04:01N 50°44' W 001°02'5 9.6
2019-Mar-22 03:31N 50°39' W 000°59'510.6
2019-Mar-22 03:01N 50°34' W 000°58'611.6
2019-Mar-22 02:31N 50°29' W 000°55'510.5
2019-Mar-22 02:00N 50°27' W 001°03'510.3
2019-Mar-22 01:31N 50°26' W 001°11'510.1
2019-Mar-22 01:00N 50°25' W 001°18'915.4
2019-Mar-22 00:26N 50°19' W 001°07'714.3
2019-Mar-21 23:58N 50°13' W 001°03'912.5
2019-Mar-21 23:15N 50°08' W 001°14'415.5
2019-Mar-21 23:00N 50°07' W 001°20'816.1
2019-Mar-21 22:31N 50°05' W 001°32'917.3
2019-Mar-21 22:01N 50°03' W 001°45'1318.9
2019-Mar-21 21:20N 49°60' W 002°04'919.4
2019-Mar-21 20:54N 49°58' W 002°17'719.1
2019-Mar-21 20:31N 49°56' W 002°28'918.6
2019-Mar-21 20:00N 49°53' W 002°42'1717.0
2019-Mar-21 19:01N 49°43' W 003°02'117.8
2019-Mar-21 18:58N 49°42' W 003°03'817.7
2019-Mar-21 18:30N 49°37' W 003°14'1317.7
2019-Mar-21 17:48N 49°31' W 003°30'1017.6
2019-Mar-21 17:14N 49°25' W 003°43'417.6
2019-Mar-21 17:00N 49°23' W 003°48'817.4
2019-Mar-21 16:30N 49°18' W 003°59'1017.4
2019-Mar-21 15:58N 49°12' W 004°11'817.1
2019-Mar-21 15:31N 49°08' W 004°20'1017.0
2019-Mar-21 14:55N 49°02' W 004°33'716.9
2019-Mar-21 14:31N 48°58' W 004°41'816.6
2019-Mar-21 14:01N 48°53' W 004°51'816.0
2019-Mar-21 13:31N 48°48' W 005°01'815.4
2019-Mar-21 13:01N 48°42' W 005°09'714.4
2019-Mar-21 12:31N 48°37' W 005°16'714.5
2019-Mar-21 12:01N 48°31' W 005°23'714.8
2019-Mar-21 11:31N 48°25' W 005°29'1014.6
2019-Mar-21 10:48N 48°16' W 005°37'1414.4
2019-Mar-21 09:48N 48°04' W 005°47'1414.0
2019-Mar-21 08:48N 47°51' W 005°57'1414.1
2019-Mar-21 07:48N 47°39' W 006°07'  
2019-Mar-18 02:10N 38°18' W 023°35'215.3
2019-Mar-18 02:01N 38°17' W 023°37'815.2
2019-Mar-18 01:31N 38°14' W 023°46'815.4
2019-Mar-18 01:00N 38°10' W 023°55'815.2
2019-Mar-18 00:31N 38°07' W 024°03'815.7
2019-Mar-18 00:00N 38°03' W 024°12'815.5
2019-Mar-17 23:31N 37°59' W 024°21'815.8
2019-Mar-17 23:01N 37°56' W 024°30'815.6
2019-Mar-17 22:31N 37°52' W 024°39'815.4
2019-Mar-17 22:01N 37°49' W 024°47'815.3
2019-Mar-17 21:31N 37°46' W 024°56'815.2
2019-Mar-17 21:01N 37°43' W 025°05'815.5
2019-Mar-17 20:31N 37°41' W 025°15'815.7
2019-Mar-17 20:01N 37°39' W 025°24'715.0
2019-Mar-17 19:31N 37°40' W 025°34'611.9
2019-Mar-17 19:01N 37°44' W 025°39'0 0.6
2019-Mar-17 18:30N 37°44' W 025°40'0 0.0
2019-Mar-17 18:00N 37°44' W 025°40'0 0.0
2019-Mar-17 17:30N 37°44' W 025°40'0 0.0
2019-Mar-17 17:00N 37°44' W 025°40'0 0.0
2019-Mar-17 16:30N 37°44' W 025°40'0 0.0
2019-Mar-17 16:00N 37°44' W 025°40'0 0.0
2019-Mar-17 15:30N 37°44' W 025°40'0 0.0
2019-Mar-17 15:18N 37°44' W 025°40'0 0.0
2019-Mar-17 15:00N 37°44' W 025°40'027.5
2019-Mar-17 15:00N 37°44' W 025°40'0 0.1
2019-Mar-17 14:30N 37°44' W 025°40'011.8
2019-Mar-17 14:30N 37°44' W 025°40'0 0.1
2019-Mar-17 14:00N 37°44' W 025°40'0 4.4
2019-Mar-17 14:00N 37°44' W 025°40'0 0.0
2019-Mar-17 13:31N 37°44' W 025°40'0 1.9
2019-Mar-17 13:30N 37°44' W 025°40'0 0.1
2019-Mar-17 13:00N 37°44' W 025°40'010.5
2019-Mar-17 13:00N 37°44' W 025°40'0 0.1
2019-Mar-17 12:30N 37°44' W 025°40'073.8
2019-Mar-17 12:30N 37°44' W 025°40'0 0.2
2019-Mar-17 12:00N 37°44' W 025°40'019.7
2019-Mar-17 12:00N 37°44' W 025°40'0 0.1
2019-Mar-17 11:31N 37°44' W 025°40'0 6.9
2019-Mar-17 11:30N 37°44' W 025°40'0 0.1
2019-Mar-17 11:00N 37°44' W 025°40'0 9.6
2019-Mar-17 11:00N 37°44' W 025°40'0 0.0
2019-Mar-17 10:30N 37°44' W 025°40'0 0.0
2019-Mar-17 10:00N 37°44' W 025°40'0 0.0
2019-Mar-17 09:30N 37°44' W 025°40'1 1.0
2019-Mar-17 09:00N 37°44' W 025°39'4 7.2
2019-Mar-17 08:30N 37°41' W 025°42'4 8.9
2019-Mar-17 08:00N 37°39' W 025°47'5 9.1
2019-Mar-17 07:30N 37°37' W 025°52'4 8.8
2019-Mar-17 07:00N 37°34' W 025°57'4 8.7
2019-Mar-17 06:30N 37°32' W 026°02'4 8.5
2019-Mar-17 06:00N 37°31' W 026°07'4 8.9
2019-Mar-17 05:30N 37°29' W 026°12'5 9.1
2019-Mar-17 05:00N 37°28' W 026°17'5 9.4
2019-Mar-17 04:30N 37°26' W 026°23'510.1
2019-Mar-17 04:00N 37°24' W 026°29'510.0
2019-Mar-17 03:30N 37°22' W 026°34'5 9.7
2019-Mar-17 03:00N 37°21' W 026°40'5 9.4
2019-Mar-17 02:31N 37°19' W 026°46'4 9.0
2019-Mar-17 02:00N 37°17' W 026°51'4 8.9
2019-Mar-17 01:30N 37°16' W 026°56'5 9.2
2019-Mar-17 01:00N 37°14' W 027°01'5 9.3
2019-Mar-17 00:30N 37°12' W 027°07'5 9.3
2019-Mar-17 00:01N 37°10' W 027°12'5 9.5
2019-Mar-16 23:30N 37°08' W 027°18'5 9.8
2019-Mar-16 23:01N 37°07' W 027°23'510.0
2019-Mar-16 22:30N 37°05' W 027°29'5 9.8
2019-Mar-16 22:00N 37°03' W 027°35'510.5
2019-Mar-16 21:31N 37°01' W 027°41'510.4
2019-Mar-16 21:00N 36°59' W 027°47'710.5
2019-Mar-16 20:23N 36°57' W 027°55'410.7
2019-Mar-16 20:00N 36°55' W 027°59'610.7
2019-Mar-16 19:25N 36°53' W 028°07'  

Dump ship's entire track history